createdAt,value
2018-03-28T00:01:42.569Z,53.47
2018-03-28T00:04:10.800Z,59.80
2018-03-28T00:06:39.236Z,58.60
2018-03-28T00:09:08.832Z,57.93
2018-03-28T00:11:38.077Z,65.53
2018-03-28T00:14:07.420Z,62.67
2018-03-28T00:16:37.007Z,62.27
2018-03-28T00:19:05.119Z,65.00
2018-03-28T00:21:33.388Z,72.40
2018-03-28T00:24:01.617Z,70.57
2018-03-28T00:26:29.853Z,63.50
2018-03-28T00:28:59.131Z,68.83
2018-03-28T00:31:28.500Z,76.30
2018-03-28T00:33:57.873Z,67.83
2018-03-28T00:36:26.569Z,60.97
2018-03-28T00:38:54.804Z,68.53
2018-03-28T00:41:23.032Z,69.90
2018-03-28T00:43:52.676Z,66.97
2018-03-28T00:46:20.922Z,65.53
2018-03-28T00:48:49.157Z,69.70
2018-03-28T00:51:29.744Z,66.30
2018-03-28T00:53:57.979Z,71.40
2018-03-28T00:56:26.980Z,62.37
2018-03-28T00:58:56.428Z,63.07
2018-03-28T01:01:25.063Z,65.47
2018-03-28T01:03:53.309Z,64.37
2018-03-28T01:06:22.032Z,66.07
2018-03-28T01:08:51.404Z,67.13
2018-03-28T01:11:19.670Z,61.97
2018-03-28T01:13:48.723Z,62.43
2018-03-28T01:16:16.957Z,57.90
2018-03-28T01:18:46.709Z,61.93
2018-03-28T01:21:15.341Z,68.57
2018-03-28T01:23:43.976Z,54.23
2018-03-28T01:26:12.212Z,60.20
2018-03-28T01:28:40.511Z,58.53
2018-03-28T01:31:08.748Z,57.03
2018-03-28T01:33:37.752Z,57.87
2018-03-28T01:36:06.805Z,57.17
2018-03-28T01:38:35.052Z,58.70
2018-03-28T01:41:03.304Z,58.50
2018-03-28T01:43:32.108Z,56.80
2018-03-28T01:46:01.108Z,63.00
2018-03-28T01:48:30.112Z,56.27
2018-03-28T01:50:58.516Z,61.87
2018-03-28T01:53:27.520Z,48.50
2018-03-28T01:55:56.144Z,57.47
2018-03-28T01:58:27.810Z,60.63
2018-03-28T02:00:56.053Z,63.30
2018-03-28T02:03:28.783Z,59.50
2018-03-28T02:05:57.023Z,51.00
2018-03-28T02:08:25.284Z,62.43
2018-03-28T02:10:54.760Z,56.77
2018-03-28T02:13:23.008Z,63.90
2018-03-28T02:15:51.249Z,63.43
2018-03-28T02:18:19.620Z,54.97
2018-03-28T02:20:47.856Z,56.90
2018-03-28T02:23:17.609Z,54.93
2018-03-28T02:25:45.887Z,59.97
2018-03-28T02:28:14.112Z,58.93
2018-03-28T02:30:42.363Z,60.40
2018-03-28T02:33:11.777Z,62.27
2018-03-28T02:35:41.511Z,61.47
2018-03-28T02:38:09.748Z,65.73
2018-03-28T02:40:38.331Z,53.20
2018-03-28T02:43:06.556Z,61.20
2018-03-28T02:45:35.927Z,72.10
2018-03-28T02:48:08.226Z,52.70
2018-03-28T02:50:37.234Z,57.10
2018-03-28T02:53:06.981Z,60.60
2018-03-28T02:55:36.736Z,63.33
2018-03-28T02:58:05.368Z,57.07
2018-03-28T03:00:33.606Z,57.70
2018-03-28T03:03:03.393Z,55.23
2018-03-28T03:05:31.631Z,56.40
2018-03-28T03:07:59.873Z,55.77
2018-03-28T03:10:28.908Z,63.63
2018-03-28T03:12:57.149Z,59.07
2018-03-28T03:15:25.380Z,56.63
2018-03-28T03:17:54.445Z,67.10
2018-03-28T03:20:23.454Z,71.67
2018-03-28T03:22:51.689Z,65.93
2018-03-28T03:25:20.412Z,76.57
2018-03-28T03:27:48.698Z,75.13
2018-03-28T03:30:18.238Z,77.90
2018-03-28T03:32:46.396Z,74.87
2018-03-28T03:35:14.644Z,70.97
2018-03-28T03:37:42.895Z,79.27
2018-03-28T03:40:12.625Z,78.30
2018-03-28T03:42:41.624Z,75.53
2018-03-28T03:45:10.624Z,81.60
2018-03-28T03:47:39.760Z,87.47
2018-03-28T03:50:09.508Z,88.63
2018-03-28T03:52:38.911Z,84.30
2018-03-28T03:55:07.153Z,77.60
2018-03-28T03:57:35.401Z,76.67
2018-03-28T04:00:03.856Z,80.67
2018-03-28T04:02:33.450Z,87.67
2018-03-28T04:05:01.571Z,79.53
2018-03-28T04:07:30.102Z,81.57
2018-03-28T04:09:58.333Z,86.87
2018-03-28T04:12:26.573Z,88.77
2018-03-28T04:14:57.106Z,74.17
2018-03-28T04:17:26.861Z,73.90
2018-03-28T04:19:55.912Z,78.73
2018-03-28T04:22:24.739Z,78.53
2018-03-28T04:24:53.379Z,70.07
2018-03-28T04:27:22.372Z,70.10
2018-03-28T04:29:50.859Z,56.70
2018-03-28T04:32:19.096Z,63.47
2018-03-28T04:34:48.095Z,57.03
2018-03-28T04:37:18.216Z,54.87
2018-03-28T04:39:46.840Z,54.57
2018-03-28T04:42:15.076Z,47.70
2018-03-28T04:44:43.748Z,46.60
2018-03-28T04:47:11.980Z,46.90
2018-03-28T04:49:40.221Z,43.67
2018-03-28T04:52:08.490Z,51.43
2018-03-28T04:54:36.724Z,45.47
2018-03-28T04:57:04.965Z,53.73
2018-03-28T04:59:34.073Z,47.80
2018-03-28T05:02:02.277Z,50.13
2018-03-28T05:04:30.513Z,50.90
2018-03-28T05:06:58.981Z,49.27
2018-03-28T05:09:27.220Z,46.37
2018-03-28T05:11:56.232Z,44.80
2018-03-28T05:14:24.507Z,48.83
2018-03-28T05:16:52.757Z,50.10
2018-03-28T05:19:20.996Z,51.67
2018-03-28T05:21:52.864Z,48.43
2018-03-28T05:24:21.873Z,48.00
2018-03-28T05:26:50.104Z,52.53
2018-03-28T05:29:18.612Z,48.00
2018-03-28T05:31:48.196Z,51.33
2018-03-28T05:34:16.309Z,56.13
2018-03-28T05:36:44.584Z,54.20
2018-03-28T05:39:13.592Z,55.30
2018-03-28T05:41:41.837Z,51.07
2018-03-28T05:44:10.216Z,55.43
2018-03-28T05:46:38.456Z,52.67
2018-03-28T05:49:08.200Z,62.17
2018-03-28T05:51:36.707Z,50.43
2018-03-28T05:54:04.948Z,66.37
2018-03-28T05:56:33.192Z,67.47
2018-03-28T05:59:02.616Z,61.10
2018-03-28T06:01:30.856Z,56.03
2018-03-28T06:03:59.091Z,62.43
2018-03-28T06:06:27.544Z,61.03
2018-03-28T06:08:55.790Z,68.90
2018-03-28T06:11:24.029Z,54.97
2018-03-28T06:13:53.072Z,63.50
2018-03-28T06:16:21.314Z,56.33
2018-03-28T06:18:49.547Z,56.53
2018-03-28T06:21:18.601Z,63.10
2018-03-28T06:23:47.613Z,58.10
2018-03-28T06:26:15.865Z,59.37
2018-03-28T06:28:44.139Z,64.17
2018-03-28T06:31:12.376Z,61.23
2018-03-28T06:33:40.614Z,52.00
2018-03-28T06:36:09.639Z,57.10
2018-03-28T06:38:38.269Z,58.20
2018-03-28T06:41:06.510Z,52.87
2018-03-28T06:43:34.785Z,56.97
2018-03-28T06:46:03.016Z,51.57
2018-03-28T06:48:31.255Z,52.03
2018-03-28T06:51:00.265Z,59.00
2018-03-28T06:53:28.902Z,48.93
2018-03-28T06:55:57.900Z,50.10
2018-03-28T06:58:26.237Z,46.73
2018-03-28T07:00:54.445Z,54.80
2018-03-28T07:03:23.447Z,46.87
2018-03-28T07:05:52.101Z,46.90
2018-03-28T07:08:21.485Z,47.87
2018-03-28T07:10:49.733Z,50.87
2018-03-28T07:13:18.773Z,51.07
2018-03-28T07:15:48.368Z,47.90
2018-03-28T07:18:16.481Z,45.03
2018-03-28T07:20:46.411Z,47.40
2018-03-28T07:23:14.598Z,54.67
2018-03-28T07:25:42.838Z,47.27
2018-03-28T07:28:12.888Z,48.33
2018-03-28T07:30:41.124Z,47.37
2018-03-28T07:33:09.364Z,44.17
2018-03-28T07:35:38.101Z,50.30
2018-03-28T07:38:07.104Z,45.97
2018-03-28T07:40:35.340Z,43.40
2018-03-28T07:43:03.616Z,45.40
2018-03-28T07:45:32.623Z,48.43
2018-03-28T07:48:02.386Z,54.50
2018-03-28T07:50:30.644Z,43.60
2018-03-28T07:53:00.393Z,47.50
2018-03-28T07:55:28.624Z,48.10
2018-03-28T07:57:56.906Z,49.63
2018-03-28T08:00:26.619Z,47.80
2018-03-28T08:02:54.856Z,45.03
2018-03-28T08:05:23.144Z,45.27
2018-03-28T08:07:52.144Z,44.47
2018-03-28T08:10:20.389Z,41.90
2018-03-28T08:12:48.993Z,40.07
2018-03-28T08:15:17.228Z,48.57
2018-03-28T08:17:45.468Z,42.50
2018-03-28T08:20:13.733Z,44.97
2018-03-28T08:22:41.972Z,44.27
2018-03-28T08:25:10.209Z,44.00
2018-03-28T08:27:39.524Z,44.07
2018-03-28T08:30:07.757Z,37.00
2018-03-28T08:32:36.392Z,49.23
2018-03-28T08:35:04.845Z,44.13
2018-03-28T08:37:34.420Z,38.60
2018-03-28T08:40:02.531Z,44.13
2018-03-28T08:42:31.939Z,39.60
2018-03-28T08:45:00.164Z,41.33
2018-03-28T08:47:28.399Z,38.90
2018-03-28T08:49:56.912Z,38.00
2018-03-28T08:52:26.421Z,41.97
2018-03-28T08:54:54.657Z,48.20
2018-03-28T08:57:23.151Z,42.10
2018-03-28T08:59:51.393Z,45.20
2018-03-28T09:02:20.770Z,44.77
2018-03-28T09:04:49.805Z,46.97
2018-03-28T09:07:18.037Z,41.73
2018-03-28T09:09:46.268Z,42.50
2018-03-28T09:12:16.082Z,45.23
2018-03-28T09:14:44.317Z,41.47
2018-03-28T09:17:12.548Z,40.07
2018-03-28T09:19:42.784Z,40.00
2018-03-28T09:22:11.780Z,45.60
2018-03-28T09:24:40.022Z,41.37
2018-03-28T09:27:08.289Z,41.77
2018-03-28T09:29:36.520Z,45.00
2018-03-28T09:32:04.756Z,41.63
2018-03-28T09:34:33.048Z,42.33
2018-03-28T09:37:01.289Z,41.30
2018-03-28T09:39:29.521Z,40.23
2018-03-28T09:41:57.799Z,36.47
2018-03-28T09:44:26.422Z,40.03
2018-03-28T09:46:54.661Z,38.70
2018-03-28T09:49:23.340Z,41.97
2018-03-28T09:51:51.572Z,44.80
2018-03-28T09:54:19.800Z,42.30
2018-03-28T09:56:48.317Z,44.27
2018-03-28T09:59:16.552Z,41.90
2018-03-28T10:01:51.705Z,43.90
2018-03-28T10:04:19.938Z,43.53
2018-03-28T10:06:48.169Z,42.33
2018-03-28T10:09:16.495Z,46.37
2018-03-28T10:11:44.668Z,43.20
2018-03-28T10:14:12.900Z,40.10
2018-03-28T10:16:42.344Z,47.93
2018-03-28T10:19:10.581Z,38.60
2018-03-28T10:21:38.817Z,44.23
2018-03-28T10:24:07.088Z,38.10
2018-03-28T10:26:35.324Z,39.80
2018-03-28T10:29:03.561Z,53.53
2018-03-28T10:31:31.896Z,44.23
2018-03-28T10:34:00.899Z,46.03
2018-03-28T10:36:29.127Z,45.80
2018-03-28T10:38:58.093Z,45.00
2018-03-28T10:41:26.368Z,46.20
2018-03-28T10:43:55.374Z,42.43
2018-03-28T10:46:23.800Z,43.10
2018-03-28T10:48:53.540Z,51.53
2018-03-28T10:51:22.546Z,43.57
2018-03-28T10:53:51.964Z,44.77
2018-03-28T10:56:20.196Z,40.97
2018-03-28T10:58:48.425Z,46.00
2018-03-28T11:01:17.005Z,41.70
2018-03-28T11:03:45.236Z,44.07
2018-03-28T11:06:13.469Z,41.03
2018-03-28T11:08:43.336Z,32.57
2018-03-28T11:11:12.919Z,32.30
2018-03-28T11:13:42.540Z,33.87
2018-03-28T11:16:10.820Z,28.33
2018-03-28T11:18:39.060Z,32.47
2018-03-28T11:21:07.296Z,33.00
2018-03-28T11:23:36.594Z,29.23
2018-03-28T11:26:05.224Z,33.13
2018-03-28T11:28:33.465Z,34.57
2018-03-28T11:31:01.736Z,34.87
2018-03-28T11:33:30.737Z,34.60
2018-03-28T11:36:00.484Z,37.67
2018-03-28T11:38:30.108Z,36.53
2018-03-28T11:40:58.340Z,35.47
2018-03-28T11:43:26.574Z,34.47
2018-03-28T11:45:54.840Z,37.47
2018-03-28T11:48:23.077Z,37.30
2018-03-28T11:50:51.317Z,39.23
2018-03-28T11:53:20.544Z,37.77
2018-03-28T11:55:49.548Z,34.57
2018-03-28T11:58:19.722Z,37.83
2018-03-28T12:00:47.959Z,35.80
2018-03-28T12:03:16.965Z,37.00
2018-03-28T12:05:45.196Z,39.53
2018-03-28T12:08:14.558Z,40.03
2018-03-28T12:10:43.184Z,39.73
2018-03-28T12:13:11.419Z,37.53
2018-03-28T12:15:39.717Z,36.00
2018-03-28T12:18:07.953Z,38.40
2018-03-28T12:20:36.191Z,30.57
2018-03-28T12:23:05.815Z,41.87
2018-03-28T12:25:33.935Z,39.00
2018-03-28T12:28:02.169Z,40.00
2018-03-28T12:30:30.848Z,34.57
2018-03-28T12:32:58.968Z,27.57
2018-03-28T12:35:27.205Z,31.63
2018-03-28T12:37:55.488Z,28.50
2018-03-28T12:40:23.723Z,28.93
2018-03-28T12:42:52.721Z,27.67
2018-03-28T12:45:20.993Z,30.07
2018-03-28T12:47:49.233Z,24.90
2018-03-28T12:50:18.240Z,37.10
2018-03-28T12:52:47.272Z,26.50
2018-03-28T12:55:16.412Z,25.60
2018-03-28T12:57:44.516Z,29.97
2018-03-28T13:00:14.278Z,25.10
2018-03-28T13:02:42.509Z,22.20
2018-03-28T13:05:10.744Z,24.80
2018-03-28T13:07:39.800Z,27.13
2018-03-28T13:10:08.041Z,26.77
2018-03-28T13:12:36.271Z,31.13
2018-03-28T13:15:04.889Z,26.37
2018-03-28T13:17:33.130Z,29.70
2018-03-28T13:20:01.363Z,25.30
2018-03-28T13:22:30.608Z,24.83
2018-03-28T13:24:58.844Z,28.60
2018-03-28T13:27:27.084Z,26.33
2018-03-28T13:29:56.468Z,30.67
2018-03-28T13:32:25.835Z,26.30
2018-03-28T13:34:54.064Z,23.40
2018-03-28T13:37:23.100Z,23.67
2018-03-28T13:39:51.344Z,26.97
2018-03-28T13:42:19.584Z,22.43
2018-03-28T13:44:48.627Z,27.87
2018-03-28T13:47:17.634Z,25.80
2018-03-28T13:49:45.860Z,26.90
2018-03-28T13:52:14.535Z,26.20
2018-03-28T13:54:42.767Z,20.70
2018-03-28T13:57:11.009Z,20.83
2018-03-28T13:59:39.281Z,18.87
2018-03-28T14:02:08.497Z,13.27
2018-03-28T14:04:36.741Z,13.60
2018-03-28T14:07:06.369Z,11.10
2018-03-28T14:09:34.470Z,11.90
2018-03-28T14:12:04.199Z,15.17
2018-03-28T14:14:32.736Z,14.43
2018-03-28T14:17:01.044Z,15.20
2018-03-28T14:19:29.273Z,18.43
2018-03-28T14:21:58.308Z,12.97
2018-03-28T14:24:27.312Z,17.00
2018-03-28T14:26:58.368Z,15.77
2018-03-28T14:29:26.602Z,14.77
2018-03-28T14:31:55.604Z,14.97
2018-03-28T14:34:24.672Z,14.90
2018-03-28T14:36:52.906Z,20.97
2018-03-28T14:39:21.921Z,22.03
2018-03-28T14:41:50.198Z,36.27
2018-03-28T14:44:18.436Z,19.93
2018-03-28T14:46:46.672Z,13.70
2018-03-28T14:49:14.937Z,11.17
2018-03-28T14:51:43.168Z,10.77
2018-03-28T14:54:11.401Z,11.47
2018-03-28T14:56:39.912Z,15.00
2018-03-28T14:59:08.933Z,14.53
2018-03-28T15:01:37.172Z,11.43
2018-03-28T15:04:05.740Z,17.37
2018-03-28T15:06:33.976Z,16.60
2018-03-28T15:09:02.216Z,13.10
2018-03-28T15:11:31.623Z,21.47
2018-03-28T15:13:59.864Z,16.17
2018-03-28T15:16:28.860Z,13.07
2018-03-28T15:18:58.262Z,11.93
2018-03-28T15:21:28.000Z,41.63
2018-03-28T15:23:56.354Z,12.70
2018-03-28T15:26:26.244Z,13.70
2018-03-28T15:28:54.429Z,15.87
2018-03-28T15:31:23.093Z,15.00
2018-03-28T15:33:52.124Z,10.57
2018-03-28T15:36:21.137Z,14.83
2018-03-28T15:38:49.764Z,15.10
2018-03-28T15:41:19.216Z,12.47
2018-03-28T15:43:47.459Z,20.23
2018-03-28T15:46:15.696Z,13.70
2018-03-28T15:48:44.538Z,12.70
2018-03-28T15:51:13.168Z,15.63
2018-03-28T15:53:41.409Z,16.80
2018-03-28T15:56:10.158Z,17.67
2018-03-28T15:58:38.432Z,15.63
2018-03-28T16:01:06.689Z,14.90
2018-03-28T16:03:35.885Z,20.10
2018-03-28T16:06:04.891Z,21.90
2018-03-28T16:08:33.174Z,18.60
2018-03-28T16:11:02.161Z,18.50
2018-03-28T16:13:31.915Z,19.00
2018-03-28T16:16:00.144Z,26.87
2018-03-28T16:18:29.436Z,21.27
2018-03-28T16:20:58.440Z,26.83
2018-03-28T16:23:27.443Z,32.83
2018-03-28T16:25:56.859Z,102.30
2018-03-28T16:28:27.036Z,43.37
2018-03-28T16:30:55.272Z,36.73
2018-03-28T16:33:23.849Z,33.90
2018-03-28T16:35:52.088Z,35.93
2018-03-28T16:38:21.675Z,39.80
2018-03-28T16:40:50.217Z,32.30
2018-03-28T16:43:19.624Z,31.70
2018-03-28T16:45:49.175Z,26.83
2018-03-28T16:48:18.016Z,27.73
2018-03-28T16:50:46.707Z,29.63
2018-03-28T16:53:15.732Z,39.97
2018-03-28T16:55:44.448Z,36.67
2018-03-28T16:58:12.725Z,29.27
2018-03-28T17:00:40.940Z,31.63
2018-03-28T17:03:10.357Z,32.30
2018-03-28T17:05:38.685Z,36.43
2018-03-28T17:08:07.698Z,30.80
2018-03-28T17:10:36.212Z,49.67
2018-03-28T17:13:04.839Z,57.37
2018-03-28T17:15:33.082Z,48.80
2018-03-28T17:18:01.449Z,38.17
2018-03-28T17:20:29.684Z,27.80
2018-03-28T17:22:59.055Z,42.13
2018-03-28T17:25:27.368Z,26.87
2018-03-28T17:27:56.384Z,20.47
2018-03-28T17:30:24.630Z,25.40
2018-03-28T17:32:54.192Z,31.70
2018-03-28T17:35:22.433Z,41.00
2018-03-28T17:37:50.677Z,29.40
2018-03-28T17:40:19.256Z,25.77
2018-03-28T17:42:48.257Z,28.27
2018-03-28T17:45:17.382Z,21.40
2018-03-28T17:47:46.473Z,19.80
2018-03-28T17:50:14.708Z,18.83
2018-03-28T17:52:43.344Z,15.77
2018-03-28T17:55:11.632Z,15.93
2018-03-28T17:57:41.088Z,13.83
2018-03-28T18:00:09.404Z,16.27
2018-03-28T18:02:37.705Z,15.17
2018-03-28T18:05:07.404Z,13.10
2018-03-28T18:07:36.480Z,7.83
2018-03-28T18:10:05.345Z,37.53
2018-03-28T18:12:33.580Z,8.33
2018-03-28T18:15:01.808Z,5.77
2018-03-28T18:17:30.852Z,4.27
2018-03-28T18:20:00.453Z,10.77
2018-03-28T18:22:28.572Z,3.43
2018-03-28T18:24:57.093Z,18.73
2018-03-28T18:27:25.324Z,8.57
2018-03-28T18:29:54.320Z,15.80
2018-03-28T18:32:22.928Z,9.27
2018-03-28T18:34:52.520Z,12.53
2018-03-28T18:37:20.631Z,17.77
2018-03-28T18:39:48.907Z,11.03
2018-03-28T18:42:17.142Z,14.23
2018-03-28T18:44:45.381Z,9.27
2018-03-28T18:47:15.329Z,7.10
2018-03-28T18:49:43.548Z,6.40
2018-03-28T18:52:11.776Z,5.97
2018-03-28T18:54:40.232Z,8.40
2018-03-28T18:57:09.592Z,4.73
2018-03-28T18:59:37.819Z,6.27
2018-03-28T19:02:06.085Z,6.50
2018-03-28T19:04:34.304Z,7.13
2018-03-28T19:07:02.533Z,7.50
2018-03-28T19:09:31.088Z,6.30
2018-03-28T19:12:00.081Z,7.50
2018-03-28T19:14:28.305Z,7.37
2018-03-28T19:16:57.157Z,7.70
2018-03-28T19:19:25.372Z,7.43
2018-03-28T19:21:54.727Z,7.47
2018-03-28T19:24:22.979Z,8.77
2018-03-28T19:26:51.199Z,7.30
2018-03-28T19:29:19.423Z,10.10
2018-03-28T19:31:49.464Z,11.73
2018-03-28T19:34:18.088Z,11.53
2018-03-28T19:36:46.324Z,14.50
2018-03-28T19:39:14.596Z,13.90
2018-03-28T19:41:44.332Z,13.67
2018-03-28T19:44:12.564Z,16.90
2018-03-28T19:46:42.555Z,19.50
2018-03-28T19:49:10.667Z,16.17
2018-03-28T19:51:38.896Z,15.73
2018-03-28T19:54:07.168Z,15.10
2018-03-28T19:56:36.164Z,19.53
2018-03-28T19:59:04.395Z,16.80
2018-03-28T20:01:33.034Z,16.67
2018-03-28T20:04:02.401Z,15.07
2018-03-28T20:06:30.631Z,15.73
2018-03-28T20:08:59.160Z,14.80
2018-03-28T20:11:30.876Z,14.70
2018-03-28T20:14:00.028Z,15.47
2018-03-28T20:16:28.248Z,14.63
2018-03-28T20:18:57.249Z,16.87
2018-03-28T20:21:25.505Z,16.13
2018-03-28T20:23:54.508Z,16.60
2018-03-28T20:26:23.508Z,16.20
2018-03-28T20:28:52.069Z,18.53
2018-03-28T20:31:21.665Z,16.83
2018-03-28T20:33:49.770Z,18.10
2018-03-28T20:36:18.059Z,18.50
2018-03-28T20:38:46.694Z,17.40
2018-03-28T20:41:14.916Z,18.93
2018-03-28T20:43:43.190Z,17.13
2018-03-28T20:46:11.430Z,15.60
2018-03-28T20:48:39.653Z,15.70
2018-03-28T20:51:09.460Z,15.97
2018-03-28T20:53:38.919Z,12.37
2018-03-28T20:56:08.388Z,14.10
2018-03-28T20:58:37.892Z,12.33
2018-03-28T21:01:07.344Z,12.83
2018-03-28T21:03:36.812Z,11.80
2018-03-28T21:06:06.406Z,10.37
2018-03-28T21:08:35.868Z,13.20
2018-03-28T21:11:06.391Z,13.50
2018-03-28T21:13:35.839Z,9.77
2018-03-28T21:16:05.296Z,9.73
2018-03-28T21:18:34.780Z,9.50
2018-03-28T21:21:04.232Z,9.47
2018-03-28T21:23:33.688Z,9.27
2018-03-28T21:26:03.176Z,8.87
2018-03-28T21:28:32.629Z,10.27
2018-03-28T21:31:02.080Z,7.93
2018-03-28T21:33:31.972Z,9.33
2018-03-28T21:36:01.419Z,8.07
2018-03-28T21:38:30.892Z,8.03
2018-03-28T21:41:00.379Z,8.20
2018-03-28T21:43:29.830Z,8.83
2018-03-28T21:45:59.280Z,9.07
2018-03-28T21:48:28.763Z,8.70
2018-03-28T21:50:58.220Z,8.93
2018-03-28T21:53:27.667Z,8.30
2018-03-28T21:55:57.348Z,8.17
2018-03-28T21:58:26.798Z,8.80
2018-03-28T22:00:56.247Z,9.00
2018-03-28T22:03:26.152Z,9.60
2018-03-28T22:05:55.599Z,9.10
2018-03-28T22:08:25.044Z,8.00
2018-03-28T22:10:54.523Z,9.70
2018-03-28T22:13:23.972Z,9.90
2018-03-28T22:15:53.422Z,7.93
2018-03-28T22:18:22.908Z,6.70
2018-03-28T22:20:52.360Z,7.23
2018-03-28T22:23:21.828Z,8.00
2018-03-28T22:25:54.690Z,5.93
2018-03-28T22:28:24.139Z,6.70
2018-03-28T22:30:53.596Z,6.80
2018-03-28T22:33:23.276Z,7.20
2018-03-28T22:35:52.727Z,8.30
2018-03-28T22:38:22.177Z,7.37
2018-03-28T22:40:51.655Z,8.30
2018-03-28T22:43:21.102Z,8.43
2018-03-28T22:45:50.548Z,6.73
2018-03-28T22:48:20.159Z,7.03
2018-03-28T22:50:49.608Z,6.10
2018-03-28T22:53:19.057Z,6.70
2018-03-28T22:55:48.752Z,6.50
2018-03-28T22:58:18.200Z,7.30
2018-03-28T23:00:47.652Z,6.50
2018-03-28T23:03:17.348Z,8.10
2018-03-28T23:05:46.796Z,7.40
2018-03-28T23:08:16.249Z,8.53
2018-03-28T23:10:45.742Z,10.30
2018-03-28T23:13:15.196Z,11.67
2018-03-28T23:15:44.644Z,10.70
2018-03-28T23:18:14.165Z,11.30
2018-03-28T23:20:43.616Z,12.37
2018-03-28T23:23:13.072Z,14.87
2018-03-28T23:25:42.571Z,14.70
2018-03-28T23:28:12.028Z,14.20
2018-03-28T23:30:41.486Z,15.10
2018-03-28T23:33:11.320Z,12.90
2018-03-28T23:35:40.781Z,14.93
2018-03-28T23:38:10.242Z,13.30
2018-03-28T23:40:39.908Z,13.43
2018-03-28T23:43:09.376Z,14.40
2018-03-28T23:45:38.844Z,11.73
2018-03-28T23:48:08.339Z,10.53
2018-03-28T23:50:37.800Z,11.97
2018-03-28T23:53:07.256Z,11.30
2018-03-28T23:55:37.095Z,12.07
2018-03-28T23:58:06.560Z,12.80
